createdAt,value
2019-02-05T00:01:35.455Z,19.87
2019-02-05T00:04:05.499Z,19.17
2019-02-05T00:06:34.604Z,21.30
2019-02-05T00:09:04.841Z,19.40
2019-02-05T00:11:34.115Z,19.20
2019-02-05T00:14:03.203Z,18.40
2019-02-05T00:16:32.295Z,22.10
2019-02-05T00:19:01.564Z,18.90
2019-02-05T00:21:30.658Z,20.07
2019-02-05T00:23:59.828Z,18.13
2019-02-05T00:26:31.183Z,17.50
2019-02-05T00:29:00.265Z,20.70
2019-02-05T00:31:29.451Z,19.67
2019-02-05T00:33:58.517Z,17.87
2019-02-05T00:36:27.685Z,16.13
2019-02-05T00:38:56.747Z,18.00
2019-02-05T00:41:25.935Z,17.63
2019-02-05T00:43:55.015Z,16.07
2019-02-05T00:46:24.148Z,20.70
2019-02-05T00:48:55.535Z,16.00
2019-02-05T00:51:25.929Z,17.60
2019-02-05T00:53:55.160Z,17.17
2019-02-05T00:56:24.823Z,17.10
2019-02-05T00:58:53.980Z,17.33
2019-02-05T01:01:25.253Z,17.80
2019-02-05T01:03:54.295Z,16.30
2019-02-05T01:06:25.816Z,14.53
2019-02-05T01:08:57.207Z,17.70
2019-02-05T01:11:26.373Z,15.60
2019-02-05T01:13:55.600Z,17.83
2019-02-05T01:16:25.957Z,17.93
2019-02-05T01:18:55.026Z,16.03
2019-02-05T01:21:26.520Z,16.27
2019-02-05T01:23:55.740Z,13.77
2019-02-05T01:26:29.401Z,18.47
2019-02-05T01:28:55.771Z,19.00
2019-02-05T01:31:24.830Z,15.73
2019-02-05T01:33:53.952Z,17.50
2019-02-05T01:36:23.067Z,17.87
2019-02-05T01:38:54.188Z,18.90
2019-02-05T01:41:23.298Z,20.17
2019-02-05T01:43:52.804Z,17.87
2019-02-05T01:46:21.879Z,17.70
2019-02-05T01:48:50.979Z,17.50
2019-02-05T01:51:22.270Z,17.97
2019-02-05T01:53:51.384Z,17.20
2019-02-05T01:56:20.466Z,16.30
2019-02-05T01:58:49.952Z,20.17
2019-02-05T02:01:19.024Z,21.10
2019-02-05T02:03:48.080Z,21.27
2019-02-05T02:06:17.199Z,18.33
2019-02-05T02:08:46.334Z,20.33
2019-02-05T02:11:17.243Z,18.53
2019-02-05T02:13:46.588Z,18.97
2019-02-05T02:16:15.727Z,16.77
2019-02-05T02:18:44.892Z,18.50
2019-02-05T02:21:13.953Z,18.00
2019-02-05T02:23:45.133Z,21.63
2019-02-05T02:26:14.221Z,16.00
2019-02-05T02:28:43.422Z,16.43
2019-02-05T02:31:12.468Z,20.03
2019-02-05T02:33:41.634Z,17.07
2019-02-05T02:36:11.866Z,19.77
2019-02-05T02:38:40.953Z,18.17
2019-02-05T02:41:10.062Z,21.47
2019-02-05T02:43:39.451Z,18.73
2019-02-05T02:46:08.570Z,18.87
2019-02-05T02:48:38.183Z,19.17
2019-02-05T02:51:07.294Z,21.43
2019-02-05T02:53:38.347Z,20.07
2019-02-05T02:56:07.462Z,22.37
2019-02-05T02:58:36.557Z,21.07
2019-02-05T03:01:05.682Z,19.67
2019-02-05T03:03:37.890Z,19.87
2019-02-05T03:06:06.950Z,18.67
2019-02-05T03:08:36.064Z,18.40
2019-02-05T03:11:05.344Z,20.90
2019-02-05T03:13:35.141Z,18.53
2019-02-05T03:16:04.809Z,19.20
2019-02-05T03:18:33.879Z,17.87
2019-02-05T03:21:03.009Z,19.07
2019-02-05T03:23:33.297Z,17.77
2019-02-05T03:26:02.351Z,17.57
2019-02-05T03:28:31.416Z,15.33
2019-02-05T03:31:03.498Z,14.77
2019-02-05T03:33:33.903Z,16.37
2019-02-05T03:36:02.988Z,15.80
2019-02-05T03:38:32.065Z,17.47
2019-02-05T03:41:04.595Z,17.03
2019-02-05T03:43:35.805Z,17.07
2019-02-05T03:46:24.753Z,18.30
2019-02-05T03:48:53.804Z,17.33
2019-02-05T03:52:07.284Z,15.53
2019-02-05T03:55:16.390Z,18.93
2019-02-05T03:58:22.353Z,14.33
2019-02-05T04:01:20.402Z,15.33
2019-02-05T04:04:14.504Z,14.80
2019-02-05T04:07:19.468Z,15.70
2019-02-05T04:10:29.001Z,17.50
2019-02-05T04:13:21.855Z,17.57
2019-02-05T04:16:37.231Z,19.53
2019-02-05T04:19:35.113Z,19.53
2019-02-05T04:22:37.735Z,16.87
2019-02-05T04:25:31.987Z,15.73
2019-02-05T04:28:30.509Z,15.67
2019-02-05T04:31:53.863Z,17.13
2019-02-05T04:34:53.365Z,18.43
2019-02-05T04:37:52.970Z,17.13
2019-02-05T04:40:36.731Z,19.13
2019-02-05T04:43:50.052Z,17.37
2019-02-05T04:46:36.861Z,15.97
2019-02-05T04:49:54.951Z,16.57
2019-02-05T04:53:14.670Z,15.03
2019-02-05T04:56:10.164Z,15.30
2019-02-05T04:59:14.773Z,18.43
2019-02-05T05:02:26.030Z,15.43
2019-02-05T05:05:26.456Z,16.33
2019-02-05T05:08:17.398Z,20.40
2019-02-05T05:10:46.485Z,14.63
2019-02-05T05:13:17.608Z,16.73
2019-02-05T05:15:46.713Z,18.33
2019-02-05T05:18:15.864Z,18.00
2019-02-05T05:20:44.933Z,17.10
2019-02-05T05:23:16.956Z,13.87
2019-02-05T05:25:46.026Z,17.57
2019-02-05T05:28:15.147Z,17.67
2019-02-05T05:30:44.358Z,16.63
2019-02-05T05:33:13.740Z,15.17
2019-02-05T05:35:44.584Z,17.43
2019-02-05T05:38:13.846Z,16.30
2019-02-05T05:40:43.005Z,18.97
2019-02-05T05:43:12.153Z,18.47
2019-02-05T05:45:43.785Z,16.47
2019-02-05T05:48:13.284Z,15.40
2019-02-05T05:50:42.364Z,17.40
2019-02-05T05:53:11.477Z,17.97
2019-02-05T05:55:40.653Z,16.00
2019-02-05T05:58:21.953Z,16.00
2019-02-05T06:00:40.580Z,16.33
2019-02-05T06:03:09.663Z,20.53
2019-02-05T06:05:38.777Z,29.00
2019-02-05T06:08:07.875Z,34.93
2019-02-05T06:10:36.979Z,32.57
2019-02-05T06:13:06.191Z,25.50
2019-02-05T06:15:35.970Z,25.87
2019-02-05T06:18:05.286Z,26.17
2019-02-05T06:20:34.710Z,28.43
2019-02-05T06:23:03.820Z,27.47
2019-02-05T06:25:33.199Z,26.83
2019-02-05T06:28:05.154Z,26.60
2019-02-05T06:30:34.319Z,23.00
2019-02-05T06:33:03.580Z,22.10
2019-02-05T06:35:33.063Z,20.60
2019-02-05T06:38:03.331Z,23.57
2019-02-05T06:40:33.019Z,21.47
2019-02-05T06:43:02.109Z,21.07
2019-02-05T06:45:31.217Z,25.73
2019-02-05T06:48:00.347Z,23.27
2019-02-05T06:50:29.488Z,22.53
2019-02-05T06:52:58.626Z,21.13
2019-02-05T06:55:32.459Z,22.77
2019-02-05T06:58:01.873Z,22.70
2019-02-05T07:00:33.404Z,20.90
2019-02-05T07:03:02.500Z,22.67
2019-02-05T07:05:32.862Z,24.13
2019-02-05T07:08:03.004Z,24.93
2019-02-05T07:10:32.187Z,24.00
2019-02-05T07:13:01.305Z,23.27
2019-02-05T07:15:30.438Z,25.40
2019-02-05T07:17:59.558Z,25.30
2019-02-05T07:20:31.010Z,24.03
2019-02-05T07:23:01.247Z,22.33
2019-02-05T07:25:30.386Z,24.43
2019-02-05T07:27:59.463Z,27.07
2019-02-05T07:30:30.387Z,23.23
2019-02-05T07:32:59.608Z,30.23
2019-02-05T07:35:28.720Z,29.77
2019-02-05T07:37:58.211Z,28.90
2019-02-05T07:40:27.327Z,29.07
2019-02-05T07:42:56.513Z,29.10
2019-02-05T07:45:25.700Z,25.73
2019-02-05T07:47:54.844Z,23.83
2019-02-05T07:50:25.312Z,23.57
2019-02-05T07:52:56.487Z,22.67
2019-02-05T07:55:27.499Z,25.60
2019-02-05T07:57:56.649Z,22.93
2019-02-05T08:00:27.343Z,24.87
2019-02-05T08:02:56.443Z,25.17
2019-02-05T08:05:28.356Z,32.67
2019-02-05T08:07:57.587Z,32.33
2019-02-05T08:10:26.664Z,34.10
2019-02-05T08:12:55.972Z,31.87
2019-02-05T08:15:27.176Z,28.87
2019-02-05T08:17:56.342Z,28.23
2019-02-05T08:20:25.504Z,24.43
2019-02-05T08:22:54.696Z,27.33
2019-02-05T08:25:23.769Z,27.53
2019-02-05T08:27:53.129Z,24.33
2019-02-05T08:30:28.234Z,24.43
2019-02-05T08:32:57.360Z,24.13
2019-02-05T08:35:28.016Z,25.93
2019-02-05T08:38:01.346Z,23.83
2019-02-05T08:40:30.474Z,26.87
2019-02-05T08:42:59.623Z,27.77
2019-02-05T08:45:30.463Z,25.87
2019-02-05T08:47:59.640Z,22.80
2019-02-05T08:50:29.243Z,28.67
2019-02-05T08:52:58.417Z,45.73
2019-02-05T08:55:30.652Z,34.23
2019-02-05T08:58:00.641Z,30.47
2019-02-05T09:00:31.971Z,30.97
2019-02-05T09:03:01.150Z,31.07
2019-02-05T09:05:31.457Z,26.43
2019-02-05T09:08:00.558Z,26.93
2019-02-05T09:10:31.765Z,25.60
2019-02-05T09:13:01.912Z,27.77
2019-02-05T09:15:33.071Z,29.77
2019-02-05T09:18:02.229Z,31.77
2019-02-05T09:20:31.420Z,35.93
2019-02-05T09:23:01.651Z,38.33
2019-02-05T09:25:30.775Z,32.57
2019-02-05T09:28:01.632Z,26.17
2019-02-05T09:30:32.497Z,40.70
2019-02-05T09:33:03.414Z,30.63
2019-02-05T09:35:35.040Z,28.37
2019-02-05T09:38:04.113Z,29.80
2019-02-05T09:40:34.220Z,30.50
2019-02-05T09:43:03.313Z,27.33
2019-02-05T09:45:32.565Z,28.57
2019-02-05T09:48:03.080Z,32.70
2019-02-05T09:50:43.763Z,30.30
2019-02-05T09:53:03.102Z,28.30
2019-02-05T09:55:32.369Z,29.47
2019-02-05T09:58:02.596Z,28.77
2019-02-05T10:00:33.964Z,26.67
2019-02-05T10:03:03.050Z,32.20
2019-02-05T10:05:32.721Z,30.50
2019-02-05T10:08:01.916Z,29.07
2019-02-05T10:10:31.129Z,25.93
2019-02-05T10:13:00.291Z,26.37
2019-02-05T10:15:35.453Z,34.27
2019-02-05T10:18:06.626Z,27.87
2019-02-05T10:20:35.709Z,23.67
2019-02-05T10:23:06.445Z,21.13
2019-02-05T10:25:39.409Z,24.07
2019-02-05T10:28:08.507Z,24.27
2019-02-05T10:30:40.007Z,22.77
2019-02-05T10:33:09.512Z,22.47
2019-02-05T10:35:38.624Z,22.50
2019-02-05T10:38:07.898Z,23.37
2019-02-05T10:40:37.128Z,22.63
2019-02-05T10:43:07.379Z,19.97
2019-02-05T10:45:37.017Z,20.63
2019-02-05T10:48:07.582Z,20.37
2019-02-05T10:50:36.613Z,23.40
2019-02-05T10:53:05.838Z,20.23
2019-02-05T10:55:35.026Z,20.17
2019-02-05T10:58:04.332Z,20.47
2019-02-05T11:00:34.509Z,22.53
2019-02-05T11:03:04.529Z,18.63
2019-02-05T11:05:33.646Z,17.80
2019-02-05T11:08:02.804Z,18.30
2019-02-05T11:10:31.866Z,16.93
2019-02-05T11:13:00.983Z,17.80
2019-02-05T11:15:31.796Z,20.43
2019-02-05T11:18:01.312Z,24.73
2019-02-05T11:20:30.784Z,20.17
2019-02-05T11:23:00.111Z,19.27
2019-02-05T11:25:31.025Z,19.83
2019-02-05T11:28:02.396Z,23.63
2019-02-05T11:30:39.547Z,24.13
2019-02-05T11:33:08.640Z,30.33
2019-02-05T11:35:38.991Z,19.50
2019-02-05T11:38:08.506Z,18.03
2019-02-05T11:40:40.135Z,27.00
2019-02-05T11:43:10.213Z,23.03
2019-02-05T11:45:42.492Z,28.47
2019-02-05T11:48:14.393Z,19.57
2019-02-05T11:50:43.503Z,16.20
2019-02-05T11:53:12.628Z,25.30
2019-02-05T11:55:41.716Z,14.60
2019-02-05T11:58:10.792Z,13.40
2019-02-05T12:00:58.840Z,16.80
2019-02-05T12:03:28.006Z,12.87
2019-02-05T12:05:57.095Z,12.23
2019-02-05T12:08:28.550Z,13.43
2019-02-05T12:10:57.698Z,13.53
2019-02-05T12:13:26.795Z,10.53
2019-02-05T12:15:55.861Z,12.83
2019-02-05T12:18:27.627Z,13.20
2019-02-05T12:21:00.874Z,11.37
2019-02-05T12:23:29.999Z,10.07
2019-02-05T12:26:02.576Z,11.40
2019-02-05T12:28:31.792Z,10.57
2019-02-05T12:31:00.913Z,9.90
2019-02-05T12:33:30.250Z,10.93
2019-02-05T12:36:00.379Z,12.03
2019-02-05T12:38:29.738Z,12.60
2019-02-05T12:40:58.776Z,11.53
2019-02-05T12:43:27.942Z,12.60
2019-02-05T12:45:57.021Z,15.10
2019-02-05T12:48:26.558Z,12.93
2019-02-05T12:50:55.623Z,14.10
2019-02-05T12:53:26.257Z,11.83
2019-02-05T12:55:55.312Z,12.60
2019-02-05T12:58:24.418Z,12.70
2019-02-05T13:00:59.557Z,11.40
2019-02-05T13:03:25.171Z,11.97
2019-02-05T13:05:54.228Z,10.43
2019-02-05T13:08:23.288Z,9.53
2019-02-05T13:10:53.368Z,9.73
2019-02-05T13:13:22.412Z,11.10
2019-02-05T13:15:51.667Z,9.27
2019-02-05T13:18:21.225Z,12.70
2019-02-05T13:20:50.372Z,9.23
2019-02-05T13:23:19.442Z,8.90
2019-02-05T13:25:48.552Z,9.57
2019-02-05T13:28:17.615Z,8.23
2019-02-05T13:30:46.691Z,9.80
2019-02-05T13:33:16.903Z,6.63
2019-02-05T13:35:46.037Z,7.67
2019-02-05T13:38:16.658Z,7.83
2019-02-05T13:40:45.819Z,6.47
2019-02-05T13:43:14.895Z,8.20
2019-02-05T13:45:43.996Z,31.47
2019-02-05T13:48:13.397Z,22.80
2019-02-05T13:50:42.604Z,16.90
2019-02-05T13:53:11.679Z,20.50
2019-02-05T13:55:42.707Z,13.17
2019-02-05T13:58:12.691Z,10.00
2019-02-05T14:00:47.389Z,9.63
2019-02-05T14:03:16.630Z,8.77
2019-02-05T14:05:47.138Z,13.27
2019-02-05T14:08:16.224Z,8.07
2019-02-05T14:10:45.700Z,6.23
2019-02-05T14:13:14.979Z,9.97
2019-02-05T14:15:45.582Z,6.50
2019-02-05T14:18:14.796Z,7.77
2019-02-05T14:20:44.036Z,10.83
2019-02-05T14:23:13.146Z,7.33
2019-02-05T14:25:44.286Z,7.43
2019-02-05T14:28:13.362Z,8.30
2019-02-05T14:30:50.711Z,8.80
2019-02-05T14:33:19.838Z,8.40
2019-02-05T14:35:48.946Z,5.67
2019-02-05T14:38:18.053Z,6.30
2019-02-05T14:40:47.154Z,8.00
2019-02-05T14:43:16.215Z,6.40
2019-02-05T14:45:45.873Z,6.83
2019-02-05T14:48:16.749Z,7.17
2019-02-05T14:50:46.730Z,7.37
2019-02-05T14:53:15.814Z,6.83
2019-02-05T14:55:44.883Z,6.37
2019-02-05T14:58:15.259Z,4.83
2019-02-05T15:00:46.653Z,4.77
2019-02-05T15:03:16.121Z,5.07
2019-02-05T15:05:49.351Z,4.73
2019-02-05T15:08:19.546Z,4.67
2019-02-05T15:10:49.120Z,17.77
2019-02-05T15:13:18.819Z,38.00
2019-02-05T15:15:48.028Z,15.30
2019-02-05T15:18:19.326Z,4.47
2019-02-05T15:20:49.628Z,5.73
2019-02-05T15:23:18.698Z,6.30
2019-02-05T15:25:47.842Z,6.60
2019-02-05T15:28:16.971Z,7.00
2019-02-05T15:30:46.091Z,5.83
2019-02-05T15:33:41.992Z,5.70
2019-02-05T15:36:20.572Z,6.03
2019-02-05T15:38:49.701Z,6.50
2019-02-05T15:41:18.811Z,6.77
2019-02-05T15:43:47.907Z,5.63
2019-02-05T15:46:18.182Z,7.60
2019-02-05T15:48:47.513Z,7.47
2019-02-05T15:51:16.616Z,9.27
2019-02-05T15:53:49.037Z,6.77
2019-02-05T15:56:19.737Z,5.83
2019-02-05T15:58:48.810Z,7.50
2019-02-05T16:01:17.847Z,7.27
2019-02-05T16:03:49.745Z,6.07
2019-02-05T16:06:21.983Z,7.67
2019-02-05T16:08:51.053Z,5.50
2019-02-05T16:11:20.132Z,5.37
2019-02-05T16:13:50.413Z,5.63
2019-02-05T16:16:20.114Z,7.47
2019-02-05T16:18:49.331Z,5.80
2019-02-05T16:21:18.450Z,5.70
2019-02-05T16:23:47.565Z,7.00
2019-02-05T16:26:17.840Z,7.97
2019-02-05T16:28:46.924Z,8.80
2019-02-05T16:31:18.075Z,8.90
2019-02-05T16:33:47.113Z,25.03
2019-02-05T16:36:16.225Z,10.73
2019-02-05T16:38:46.457Z,6.07
2019-02-05T16:41:15.572Z,7.47
2019-02-05T16:43:49.933Z,6.80
2019-02-05T16:46:19.288Z,5.97
2019-02-05T16:48:48.410Z,8.33
2019-02-05T16:51:19.829Z,6.37
2019-02-05T16:53:48.911Z,7.67
2019-02-05T16:56:18.300Z,10.93
2019-02-05T16:58:47.461Z,12.63
2019-02-05T17:01:16.900Z,10.57
2019-02-05T17:03:46.058Z,13.47
2019-02-05T17:06:15.297Z,10.10
2019-02-05T17:08:48.476Z,8.70
2019-02-05T17:11:17.538Z,6.03
2019-02-05T17:13:46.675Z,6.57
2019-02-05T17:16:16.938Z,8.67
2019-02-05T17:18:46.098Z,7.70
2019-02-05T17:21:15.184Z,6.90
2019-02-05T17:23:44.293Z,6.90
2019-02-05T17:26:13.352Z,6.57
2019-02-05T17:28:42.578Z,5.27
2019-02-05T17:31:12.102Z,5.37
2019-02-05T17:33:41.283Z,13.67
2019-02-05T17:36:11.088Z,7.73
2019-02-05T17:38:42.503Z,7.27
2019-02-05T17:41:11.595Z,8.20
2019-02-05T17:43:40.676Z,8.30
2019-02-05T17:46:09.723Z,6.73
2019-02-05T17:48:38.770Z,8.03
2019-02-05T17:51:07.868Z,7.37
2019-02-05T17:53:36.937Z,6.57
2019-02-05T17:56:06.049Z,8.97
2019-02-05T17:58:35.152Z,9.33
2019-02-05T18:01:15.462Z,6.93
2019-02-05T18:03:45.012Z,8.93
2019-02-05T18:06:16.570Z,9.73
2019-02-05T18:08:45.853Z,8.23
2019-02-05T18:11:14.947Z,7.80
2019-02-05T18:13:46.579Z,9.10
2019-02-05T18:16:17.821Z,7.43
2019-02-05T18:18:53.389Z,8.93
2019-02-05T18:21:24.115Z,11.20
2019-02-05T18:23:53.134Z,8.07
2019-02-05T18:26:24.845Z,7.97
2019-02-05T18:28:53.909Z,6.47
2019-02-05T18:31:25.027Z,8.00
2019-02-05T18:33:54.044Z,9.60
2019-02-05T18:36:24.327Z,8.73
2019-02-05T18:38:53.650Z,8.83
2019-02-05T18:41:22.759Z,8.67
2019-02-05T18:43:51.871Z,8.80
2019-02-05T18:46:20.978Z,9.30
2019-02-05T18:48:50.084Z,8.97
2019-02-05T18:51:19.213Z,9.20
2019-02-05T18:53:48.272Z,7.70
2019-02-05T18:56:17.387Z,9.17
2019-02-05T18:58:46.534Z,9.23
2019-02-05T19:01:15.690Z,9.27
2019-02-05T19:03:44.869Z,6.83
2019-02-05T19:06:13.981Z,7.10
2019-02-05T19:08:43.057Z,12.77
2019-02-05T19:11:12.526Z,10.87
2019-02-05T19:13:41.655Z,10.77
2019-02-05T19:16:10.813Z,8.93
2019-02-05T19:18:39.958Z,11.03
2019-02-05T19:21:09.062Z,9.87
2019-02-05T19:23:38.210Z,10.30
2019-02-05T19:26:17.356Z,7.90
2019-02-05T19:28:48.709Z,12.83
2019-02-05T19:31:38.728Z,9.07
2019-02-05T19:34:08.213Z,6.50
2019-02-05T19:36:37.335Z,6.90
2019-02-05T19:39:08.092Z,8.13
2019-02-05T19:41:37.195Z,8.47
2019-02-05T19:44:06.347Z,10.60
2019-02-05T19:46:50.419Z,9.07
2019-02-05T19:49:43.730Z,10.00
2019-02-05T19:52:12.764Z,10.83
2019-02-05T19:54:41.842Z,10.70
2019-02-05T19:57:10.973Z,8.97
2019-02-05T19:59:41.334Z,8.83
2019-02-05T20:02:10.410Z,10.57
2019-02-05T20:04:39.589Z,13.67
2019-02-05T20:07:08.689Z,9.67
2019-02-05T20:09:37.760Z,12.03
2019-02-05T20:12:09.095Z,12.40
2019-02-05T20:14:40.041Z,11.43
2019-02-05T20:17:19.567Z,23.57
2019-02-05T20:19:49.985Z,17.13
2019-02-05T20:22:19.093Z,18.70
2019-02-05T20:24:48.226Z,17.33
2019-02-05T20:27:17.341Z,14.90
2019-02-05T20:29:46.799Z,14.30
2019-02-05T20:32:15.936Z,16.03
2019-02-05T20:34:45.098Z,15.87
2019-02-05T20:37:14.514Z,12.00
2019-02-05T20:39:43.682Z,13.37
2019-02-05T20:42:13.062Z,15.63
2019-02-05T20:44:42.214Z,14.17
2019-02-05T20:47:14.308Z,15.00
2019-02-05T20:49:46.426Z,15.37
2019-02-05T20:52:15.974Z,14.77
2019-02-05T20:54:45.878Z,15.07
2019-02-05T20:57:15.585Z,12.63
2019-02-05T20:59:45.294Z,12.83
2019-02-05T21:02:14.866Z,14.97
2019-02-05T21:04:48.601Z,13.47
2019-02-05T21:07:17.272Z,15.77
2019-02-05T21:09:48.859Z,12.07
2019-02-05T21:12:17.944Z,13.23
2019-02-05T21:14:50.276Z,12.30
2019-02-05T21:17:19.636Z,12.17
2019-02-05T21:19:48.770Z,15.83
2019-02-05T21:22:17.906Z,14.30
2019-02-05T21:24:47.036Z,16.40
2019-02-05T21:27:16.081Z,14.20
2019-02-05T21:29:45.217Z,16.70
2019-02-05T21:32:15.789Z,12.87
2019-02-05T21:34:44.913Z,13.63
2019-02-05T21:37:14.050Z,13.23
2019-02-05T21:39:43.153Z,15.00
2019-02-05T21:42:12.215Z,14.67
2019-02-05T21:44:42.514Z,12.93
2019-02-05T21:47:11.964Z,13.70
2019-02-05T21:49:41.094Z,13.27
2019-02-05T21:52:12.429Z,11.10
2019-02-05T21:54:42.902Z,11.97
2019-02-05T21:57:12.122Z,12.60
2019-02-05T21:59:41.285Z,13.87
2019-02-05T22:02:10.498Z,12.03
2019-02-05T22:04:39.661Z,12.43
2019-02-05T22:07:08.739Z,14.33
2019-02-05T22:09:37.932Z,15.20
2019-02-05T22:12:10.421Z,14.30
2019-02-05T22:14:41.131Z,18.37
2019-02-05T22:17:10.537Z,14.43
2019-02-05T22:19:41.278Z,15.47
2019-02-05T22:22:10.386Z,13.77
2019-02-05T22:24:39.460Z,14.97
2019-02-05T22:27:08.918Z,13.03
2019-02-05T22:29:38.143Z,13.67
2019-02-05T22:32:07.164Z,14.10
2019-02-05T22:34:39.250Z,16.33
2019-02-05T22:37:07.106Z,12.47
2019-02-05T22:39:38.181Z,12.77
2019-02-05T22:42:07.381Z,15.20
2019-02-05T22:44:38.101Z,14.07
2019-02-05T22:47:08.291Z,16.30
2019-02-05T22:49:38.843Z,15.07
2019-02-05T22:52:07.951Z,13.50
2019-02-05T22:54:37.012Z,12.40
2019-02-05T22:57:06.165Z,11.20
2019-02-05T22:59:37.413Z,13.50
2019-02-05T23:02:06.951Z,11.50
2019-02-05T23:05:23.012Z,13.37
2019-02-05T23:07:52.160Z,16.13
2019-02-05T23:10:49.132Z,16.30
2019-02-05T23:13:19.840Z,14.80
2019-02-05T23:15:50.434Z,13.40
2019-02-05T23:18:19.693Z,12.47
2019-02-05T23:20:48.744Z,18.87
2019-02-05T23:23:17.901Z,17.40
2019-02-05T23:25:46.970Z,16.10
2019-02-05T23:28:16.064Z,16.23
2019-02-05T23:30:45.217Z,18.30
2019-02-05T23:33:14.464Z,18.30
2019-02-05T23:35:43.557Z,19.10
2019-02-05T23:38:12.653Z,19.97
2019-02-05T23:40:41.738Z,16.17
2019-02-05T23:43:10.791Z,17.80
2019-02-05T23:45:39.935Z,15.93
2019-02-05T23:48:09.311Z,16.37
2019-02-05T23:50:40.730Z,17.47
2019-02-05T23:53:09.889Z,17.43
2019-02-05T23:55:39.010Z,15.50
2019-02-05T23:58:08.139Z,18.37
